sensor_id;sensor_type;location;lat;lon;timestamp;temperature;humidity
20288;DHT22;10303;51.960;8.372;2022-10-16T11:25:32;23.40;94.80
20288;DHT22;10303;51.960;8.372;2022-10-16T11:28:12;23.20;94.90
20288;DHT22;10303;51.960;8.372;2022-10-16T11:30:49;23.30;93.60
20288;DHT22;10303;51.960;8.372;2022-10-16T11:33:28;23.10;93.80
20288;DHT22;10303;51.960;8.372;2022-10-16T11:42:08;22.60;93.90
20288;DHT22;10303;51.960;8.372;2022-10-16T11:45:15;22.50;94.10
20288;DHT22;10303;51.960;8.372;2022-10-16T11:50:45;22.60;94.60
20288;DHT22;10303;51.960;8.372;2022-10-16T11:56:25;22.70;95.10
20288;DHT22;10303;51.960;8.372;2022-10-16T11:59:02;22.70;95.40
20288;DHT22;10303;51.960;8.372;2022-10-16T12:04:30;22.80;94.40
20288;DHT22;10303;51.960;8.372;2022-10-16T12:07:22;22.90;94.70
20288;DHT22;10303;51.960;8.372;2022-10-16T12:09:53;23.10;94.90
20288;DHT22;10303;51.960;8.372;2022-10-16T12:12:48;23.20;94.60
20288;DHT22;10303;51.960;8.372;2022-10-16T12:15:28;23.20;95.50
20288;DHT22;10303;51.960;8.372;2022-10-16T12:17:56;23.30;95.20
20288;DHT22;10303;51.960;8.372;2022-10-16T12:22:58;23.60;94.60
20288;DHT22;10303;51.960;8.372;2022-10-16T12:25:39;23.70;94.90
20288;DHT22;10303;51.960;8.372;2022-10-16T12:28:27;23.90;94.60
20288;DHT22;10303;51.960;8.372;2022-10-16T12:31:03;24.10;94.60
20288;DHT22;10303;51.960;8.372;2022-10-16T12:33:36;24.20;93.20
20288;DHT22;10303;51.960;8.372;2022-10-16T12:36:16;24.10;92.50
20288;DHT22;10303;51.960;8.372;2022-10-16T12:38:56;24.20;93.90
20288;DHT22;10303;51.960;8.372;2022-10-16T12:41:31;24.20;93.90
20288;DHT22;10303;51.960;8.372;2022-10-16T12:44:03;24.20;93.30
20288;DHT22;10303;51.960;8.372;2022-10-16T12:51:42;24.20;91.60
20288;DHT22;10303;51.960;8.372;2022-10-16T13:03:26;24.10;91.00
20288;DHT22;10303;51.960;8.372;2022-10-16T13:12:50;23.90;91.20
20288;DHT22;10303;51.960;8.372;2022-10-16T13:18:46;23.40;91.30
20288;DHT22;10303;51.960;8.372;2022-10-16T13:24:19;23.40;92.20
20288;DHT22;10303;51.960;8.372;2022-10-16T13:30:25;23.30;92.00
20288;DHT22;10303;51.960;8.372;2022-10-16T13:33:30;23.20;92.50
20288;DHT22;10303;51.960;8.372;2022-10-16T13:35:57;23.10;91.50
20288;DHT22;10303;51.960;8.372;2022-10-16T13:38:29;23.00;91.90
20288;DHT22;10303;51.960;8.372;2022-10-16T13:41:04;23.00;92.60
20288;DHT22;10303;51.960;8.372;2022-10-16T13:43:34;23.00;93.10
20288;DHT22;10303;51.960;8.372;2022-10-16T13:46:12;22.90;93.00
20288;DHT22;10303;51.960;8.372;2022-10-16T13:48:44;22.80;92.60
20288;DHT22;10303;51.960;8.372;2022-10-16T13:51:22;22.80;92.90
20288;DHT22;10303;51.960;8.372;2022-10-16T13:53:50;22.80;92.90
20288;DHT22;10303;51.960;8.372;2022-10-16T13:56:22;22.80;93.20
20288;DHT22;10303;51.960;8.372;2022-10-16T14:01:53;22.70;93.60
20288;DHT22;10303;51.960;8.372;2022-10-16T14:04:31;22.70;93.70
20288;DHT22;10303;51.960;8.372;2022-10-16T14:06:59;22.80;93.90
20288;DHT22;10303;51.960;8.372;2022-10-16T14:09:28;22.80;93.90
20288;DHT22;10303;51.960;8.372;2022-10-16T14:12:07;22.70;93.40
20288;DHT22;10303;51.960;8.372;2022-10-16T14:14:47;22.70;93.20
20288;DHT22;10303;51.960;8.372;2022-10-16T14:17:23;22.60;93.10
20288;DHT22;10303;51.960;8.372;2022-10-16T14:19:55;22.70;93.60
20288;DHT22;10303;51.960;8.372;2022-10-16T14:22:33;22.70;93.90
20288;DHT22;10303;51.960;8.372;2022-10-16T14:28:21;22.70;93.80
20288;DHT22;10303;51.960;8.372;2022-10-16T14:30:53;22.60;93.60
20288;DHT22;10303;51.960;8.372;2022-10-16T14:33:39;22.70;93.70
20288;DHT22;10303;51.960;8.372;2022-10-16T14:36:14;22.60;93.00
20288;DHT22;10303;51.960;8.372;2022-10-16T14:38:57;22.70;93.90
20288;DHT22;10303;51.960;8.372;2022-10-16T14:41:25;22.70;93.60
20288;DHT22;10303;51.960;8.372;2022-10-16T14:43:56;22.70;93.50
20288;DHT22;10303;51.960;8.372;2022-10-16T14:46:35;22.60;93.50
20288;DHT22;10303;51.960;8.372;2022-10-16T14:49:25;22.60;93.60
20288;DHT22;10303;51.960;8.372;2022-10-16T14:51:51;22.60;93.90
20288;DHT22;10303;51.960;8.372;2022-10-16T14:54:20;22.60;93.80
20288;DHT22;10303;51.960;8.372;2022-10-16T14:56:48;22.60;93.50
20288;DHT22;10303;51.960;8.372;2022-10-16T14:59:34;22.60;93.40
20288;DHT22;10303;51.960;8.372;2022-10-16T15:04:53;22.60;94.00
20288;DHT22;10303;51.960;8.372;2022-10-16T15:07:19;22.60;94.20
20288;DHT22;10303;51.960;8.372;2022-10-16T15:09:47;23.90;94.80
20288;DHT22;10303;51.960;8.372;2022-10-16T15:12:14;22.70;94.40
20288;DHT22;10303;51.960;8.372;2022-10-16T15:14:41;22.70;94.50
20288;DHT22;10303;51.960;8.372;2022-10-16T15:17:09;22.70;94.60
20288;DHT22;10303;51.960;8.372;2022-10-16T15:19:37;22.80;94.60
20288;DHT22;10303;51.960;8.372;2022-10-16T15:22:03;22.70;93.90
20288;DHT22;10303;51.960;8.372;2022-10-16T15:24:29;22.80;94.30
20288;DHT22;10303;51.960;8.372;2022-10-16T15:26:55;22.80;94.50
20288;DHT22;10303;51.960;8.372;2022-10-16T15:29:21;22.80;94.50
20288;DHT22;10303;51.960;8.372;2022-10-16T15:31:47;22.80;94.40
20288;DHT22;10303;51.960;8.372;2022-10-16T15:34:13;22.80;94.20
20288;DHT22;10303;51.960;8.372;2022-10-16T15:36:39;22.70;94.10
20288;DHT22;10303;51.960;8.372;2022-10-16T15:39:15;22.70;94.10
20288;DHT22;10303;51.960;8.372;2022-10-16T15:41:43;22.70;94.00
20288;DHT22;10303;51.960;8.372;2022-10-16T15:44:10;22.70;94.10
20288;DHT22;10303;51.960;8.372;2022-10-16T15:46:36;22.70;94.50
20288;DHT22;10303;51.960;8.372;2022-10-16T15:49:04;22.60;94.40
20288;DHT22;10303;51.960;8.372;2022-10-16T15:51:33;22.60;94.40
20288;DHT22;10303;51.960;8.372;2022-10-16T15:54:03;22.60;94.40
20288;DHT22;10303;51.960;8.372;2022-10-16T15:56:30;22.50;94.40
20288;DHT22;10303;51.960;8.372;2022-10-16T15:58:59;22.50;94.50
20288;DHT22;10303;51.960;8.372;2022-10-16T16:01:28;22.50;94.40
20288;DHT22;10303;51.960;8.372;2022-10-16T16:03:57;22.40;94.40
20288;DHT22;10303;51.960;8.372;2022-10-16T16:06:24;22.40;94.60
20288;DHT22;10303;51.960;8.372;2022-10-16T16:08:57;21.70;94.60
20288;DHT22;10303;51.960;8.372;2022-10-16T16:11:26;22.30;94.90
20288;DHT22;10303;51.960;8.372;2022-10-16T16:13:54;22.30;95.10
20288;DHT22;10303;51.960;8.372;2022-10-16T16:16:23;22.20;95.10
20288;DHT22;10303;51.960;8.372;2022-10-16T16:18:52;22.20;95.10
20288;DHT22;10303;51.960;8.372;2022-10-16T16:21:21;22.10;95.30
20288;DHT22;10303;51.960;8.372;2022-10-16T16:23:47;22.10;95.20
20288;DHT22;10303;51.960;8.372;2022-10-16T16:26:24;22.00;95.20
20288;DHT22;10303;51.960;8.372;2022-10-16T16:28:53;22.00;95.40
20288;DHT22;10303;51.960;8.372;2022-10-16T16:31:24;21.90;95.30
20288;DHT22;10303;51.960;8.372;2022-10-16T16:33:52;21.80;95.50
20288;DHT22;10303;51.960;8.372;2022-10-16T16:36:19;21.80;95.60
20288;DHT22;10303;51.960;8.372;2022-10-16T16:38:46;21.70;95.70
20288;DHT22;10303;51.960;8.372;2022-10-16T16:41:17;21.70;95.70
20288;DHT22;10303;51.960;8.372;2022-10-16T16:43:46;21.60;95.70
20288;DHT22;10303;51.960;8.372;2022-10-16T16:46:13;21.60;95.80
20288;DHT22;10303;51.960;8.372;2022-10-16T16:48:41;21.50;96.00
20288;DHT22;10303;51.960;8.372;2022-10-16T16:51:10;21.50;96.10
20288;DHT22;10303;51.960;8.372;2022-10-16T16:53:43;21.40;96.20
20288;DHT22;10303;51.960;8.372;2022-10-16T16:56:10;21.40;96.20
20288;DHT22;10303;51.960;8.372;2022-10-16T16:58:36;21.40;96.40
20288;DHT22;10303;51.960;8.372;2022-10-16T17:01:03;21.30;96.40
20288;DHT22;10303;51.960;8.372;2022-10-16T17:03:34;20.80;96.30
20288;DHT22;10303;51.960;8.372;2022-10-16T17:06:03;21.20;96.60
20288;DHT22;10303;51.960;8.372;2022-10-16T17:08:34;21.20;96.60
20288;DHT22;10303;51.960;8.372;2022-10-16T17:11:01;21.20;96.60
20288;DHT22;10303;51.960;8.372;2022-10-16T17:13:29;21.10;96.70
20288;DHT22;10303;51.960;8.372;2022-10-16T17:16:03;21.10;96.90
20288;DHT22;10303;51.960;8.372;2022-10-16T17:18:32;21.10;96.90
20288;DHT22;10303;51.960;8.372;2022-10-16T17:21:00;21.00;97.00
20288;DHT22;10303;51.960;8.372;2022-10-16T17:23:31;21.00;97.40
20288;DHT22;10303;51.960;8.372;2022-10-16T17:26:07;20.90;97.10
20288;DHT22;10303;51.960;8.372;2022-10-16T17:28:35;20.90;97.30
20288;DHT22;10303;51.960;8.372;2022-10-16T17:31:22;20.80;97.20
20288;DHT22;10303;51.960;8.372;2022-10-16T17:33:49;20.80;97.60
20288;DHT22;10303;51.960;8.372;2022-10-16T17:36:17;20.80;97.30
20288;DHT22;10303;51.960;8.372;2022-10-16T17:38:44;20.70;97.30
20288;DHT22;10303;51.960;8.372;2022-10-16T17:41:21;20.70;97.50
20288;DHT22;10303;51.960;8.372;2022-10-16T17:43:49;20.60;97.60
20288;DHT22;10303;51.960;8.372;2022-10-16T17:46:19;20.60;97.50
20288;DHT22;10303;51.960;8.372;2022-10-16T17:48:49;20.50;97.90
20288;DHT22;10303;51.960;8.372;2022-10-16T17:51:22;20.50;97.60
20288;DHT22;10303;51.960;8.372;2022-10-16T17:54:00;20.50;97.60
20288;DHT22;10303;51.960;8.372;2022-10-16T17:56:27;20.40;98.00
20288;DHT22;10303;51.960;8.372;2022-10-16T17:58:55;20.40;97.70
20288;DHT22;10303;51.960;8.372;2022-10-16T18:01:27;20.30;97.90
20288;DHT22;10303;51.960;8.372;2022-10-16T18:04:05;20.20;98.00
20288;DHT22;10303;51.960;8.372;2022-10-16T18:06:35;20.20;98.20
20288;DHT22;10303;51.960;8.372;2022-10-16T18:09:03;20.10;98.10
20288;DHT22;10303;51.960;8.372;2022-10-16T18:11:31;20.10;98.20
20288;DHT22;10303;51.960;8.372;2022-10-16T18:13:58;20.10;98.20
20288;DHT22;10303;51.960;8.372;2022-10-16T18:16:28;20.00;98.40
20288;DHT22;10303;51.960;8.372;2022-10-16T18:18:55;20.00;98.50
20288;DHT22;10303;51.960;8.372;2022-10-16T18:21:23;19.90;98.40
20288;DHT22;10303;51.960;8.372;2022-10-16T18:23:55;19.90;98.50
20288;DHT22;10303;51.960;8.372;2022-10-16T18:26:23;19.90;98.60
20288;DHT22;10303;51.960;8.372;2022-10-16T18:28:54;19.90;98.70
20288;DHT22;10303;51.960;8.372;2022-10-16T18:31:22;19.80;98.90
20288;DHT22;10303;51.960;8.372;2022-10-16T18:33:50;19.80;98.70
20288;DHT22;10303;51.960;8.372;2022-10-16T18:36:22;19.70;98.80
20288;DHT22;10303;51.960;8.372;2022-10-16T18:38:51;19.60;98.90
20288;DHT22;10303;51.960;8.372;2022-10-16T18:41:18;19.60;98.80
20288;DHT22;10303;51.960;8.372;2022-10-16T18:43:44;19.60;98.90
20288;DHT22;10303;51.960;8.372;2022-10-16T18:46:13;19.60;99.00
20288;DHT22;10303;51.960;8.372;2022-10-16T18:48:41;19.50;99.10
20288;DHT22;10303;51.960;8.372;2022-10-16T18:51:21;19.50;99.20
20288;DHT22;10303;51.960;8.372;2022-10-16T18:53:54;19.40;99.60
20288;DHT22;10303;51.960;8.372;2022-10-16T18:56:23;19.40;99.40
20288;DHT22;10303;51.960;8.372;2022-10-16T18:58:50;19.40;99.50
20288;DHT22;10303;51.960;8.372;2022-10-16T19:01:25;19.30;99.70
20288;DHT22;10303;51.960;8.372;2022-10-16T19:03:58;19.30;99.70
20288;DHT22;10303;51.960;8.372;2022-10-16T19:06:33;19.30;99.90
20288;DHT22;10303;51.960;8.372;2022-10-16T19:09:01;19.30;99.90
20288;DHT22;10303;51.960;8.372;2022-10-16T19:11:29;19.30;99.90
20288;DHT22;10303;51.960;8.372;2022-10-16T19:13:56;19.20;99.90
20288;DHT22;10303;51.960;8.372;2022-10-16T19:16:28;19.20;99.90
20288;DHT22;10303;51.960;8.372;2022-10-16T19:18:58;19.20;99.90
20288;DHT22;10303;51.960;8.372;2022-10-16T19:21:26;19.10;99.90
20288;DHT22;10303;51.960;8.372;2022-10-16T19:23:58;19.10;99.90
20288;DHT22;10303;51.960;8.372;2022-10-16T19:26:29;19.10;99.90
20288;DHT22;10303;51.960;8.372;2022-10-16T19:28:58;19.10;99.90
20288;DHT22;10303;51.960;8.372;2022-10-16T19:31:27;19.10;99.90
20288;DHT22;10303;51.960;8.372;2022-10-16T19:33:58;19.10;99.90
20288;DHT22;10303;51.960;8.372;2022-10-16T19:36:31;19.10;99.90
20288;DHT22;10303;51.960;8.372;2022-10-16T19:39:10;19.10;99.90
20288;DHT22;10303;51.960;8.372;2022-10-16T19:41:39;19.10;99.90
20288;DHT22;10303;51.960;8.372;2022-10-16T19:44:07;19.10;99.90
20288;DHT22;10303;51.960;8.372;2022-10-16T19:46:36;19.10;99.90
20288;DHT22;10303;51.960;8.372;2022-10-16T19:49:04;19.10;99.90
20288;DHT22;10303;51.960;8.372;2022-10-16T19:51:32;19.00;99.90
20288;DHT22;10303;51.960;8.372;2022-10-16T19:54:04;19.00;99.90
20288;DHT22;10303;51.960;8.372;2022-10-16T19:56:33;19.00;99.90
20288;DHT22;10303;51.960;8.372;2022-10-16T19:59:01;19.00;99.90
20288;DHT22;10303;51.960;8.372;2022-10-16T20:01:30;19.00;99.90
20288;DHT22;10303;51.960;8.372;2022-10-16T20:03:57;19.00;99.90
20288;DHT22;10303;51.960;8.372;2022-10-16T20:06:24;19.00;99.90
20288;DHT22;10303;51.960;8.372;2022-10-16T20:08:52;19.00;99.90
20288;DHT22;10303;51.960;8.372;2022-10-16T20:11:27;19.00;99.90
20288;DHT22;10303;51.960;8.372;2022-10-16T20:13:55;19.00;99.90
20288;DHT22;10303;51.960;8.372;2022-10-16T20:16:22;18.90;99.90
20288;DHT22;10303;51.960;8.372;2022-10-16T20:18:50;19.00;99.90
20288;DHT22;10303;51.960;8.372;2022-10-16T20:21:31;19.00;99.90
20288;DHT22;10303;51.960;8.372;2022-10-16T20:24:00;19.00;99.90
20288;DHT22;10303;51.960;8.372;2022-10-16T20:26:30;19.00;99.90
20288;DHT22;10303;51.960;8.372;2022-10-16T20:28:56;19.00;99.90
20288;DHT22;10303;51.960;8.372;2022-10-16T20:31:25;19.00;99.90
20288;DHT22;10303;51.960;8.372;2022-10-16T20:33:54;19.00;99.90
20288;DHT22;10303;51.960;8.372;2022-10-16T20:36:22;19.00;99.90
20288;DHT22;10303;51.960;8.372;2022-10-16T20:38:50;19.00;99.90
20288;DHT22;10303;51.960;8.372;2022-10-16T20:41:18;19.00;99.90
20288;DHT22;10303;51.960;8.372;2022-10-16T20:43:47;18.60;99.90
20288;DHT22;10303;51.960;8.372;2022-10-16T20:46:17;19.00;99.90
20288;DHT22;10303;51.960;8.372;2022-10-16T20:48:45;19.00;99.90
20288;DHT22;10303;51.960;8.372;2022-10-16T20:51:29;19.10;99.90
20288;DHT22;10303;51.960;8.372;2022-10-16T20:53:58;19.00;99.90
20288;DHT22;10303;51.960;8.372;2022-10-16T20:56:28;19.00;99.90
20288;DHT22;10303;51.960;8.372;2022-10-16T20:58:56;19.00;99.90
20288;DHT22;10303;51.960;8.372;2022-10-16T21:01:24;19.00;99.90
20288;DHT22;10303;51.960;8.372;2022-10-16T21:03:57;19.00;99.90
20288;DHT22;10303;51.960;8.372;2022-10-16T21:06:26;19.00;99.90
20288;DHT22;10303;51.960;8.372;2022-10-16T21:08:53;18.90;99.90
20288;DHT22;10303;51.960;8.372;2022-10-16T21:13:53;19.00;99.90
20288;DHT22;10303;51.960;8.372;2022-10-16T21:16:21;18.90;99.90
20288;DHT22;10303;51.960;8.372;2022-10-16T21:18:48;18.90;99.90
20288;DHT22;10303;51.960;8.372;2022-10-16T21:21:25;18.90;99.90
20288;DHT22;10303;51.960;8.372;2022-10-16T21:23:52;18.80;99.90
20288;DHT22;10303;51.960;8.372;2022-10-16T21:26:21;18.80;99.90
20288;DHT22;10303;51.960;8.372;2022-10-16T21:28:47;18.90;99.90
20288;DHT22;10303;51.960;8.372;2022-10-16T21:31:16;18.90;99.90
20288;DHT22;10303;51.960;8.372;2022-10-16T21:33:44;18.80;99.90
20288;DHT22;10303;51.960;8.372;2022-10-16T21:36:18;18.80;99.90
20288;DHT22;10303;51.960;8.372;2022-10-16T21:38:46;18.80;99.90
20288;DHT22;10303;51.960;8.372;2022-10-16T21:41:16;18.80;99.90
20288;DHT22;10303;51.960;8.372;2022-10-16T21:43:47;18.80;99.90
20288;DHT22;10303;51.960;8.372;2022-10-16T21:46:15;18.80;99.90
20288;DHT22;10303;51.960;8.372;2022-10-16T21:48:42;18.80;99.90
20288;DHT22;10303;51.960;8.372;2022-10-16T21:51:09;18.70;99.90
20288;DHT22;10303;51.960;8.372;2022-10-16T21:53:37;18.80;99.90
20288;DHT22;10303;51.960;8.372;2022-10-16T21:56:04;18.80;99.90
20288;DHT22;10303;51.960;8.372;2022-10-16T21:58:36;18.70;99.90
20288;DHT22;10303;51.960;8.372;2022-10-16T22:01:11;18.70;99.90
20288;DHT22;10303;51.960;8.372;2022-10-16T22:03:39;18.70;99.90
20288;DHT22;10303;51.960;8.372;2022-10-16T22:06:06;18.70;99.90
20288;DHT22;10303;51.960;8.372;2022-10-16T22:08:34;18.70;99.90
20288;DHT22;10303;51.960;8.372;2022-10-16T22:11:07;18.70;99.90
20288;DHT22;10303;51.960;8.372;2022-10-16T22:13:34;18.70;99.90
20288;DHT22;10303;51.960;8.372;2022-10-16T22:16:02;18.70;99.90
20288;DHT22;10303;51.960;8.372;2022-10-16T22:18:29;18.70;99.90
20288;DHT22;10303;51.960;8.372;2022-10-16T22:20:56;18.70;99.90
20288;DHT22;10303;51.960;8.372;2022-10-16T22:23:23;18.70;99.90
20288;DHT22;10303;51.960;8.372;2022-10-16T22:25:49;18.60;99.90
20288;DHT22;10303;51.960;8.372;2022-10-16T22:28:15;18.70;99.90
20288;DHT22;10303;51.960;8.372;2022-10-16T22:30:44;18.60;99.90
20288;DHT22;10303;51.960;8.372;2022-10-16T22:33:11;18.60;99.90
20288;DHT22;10303;51.960;8.372;2022-10-16T22:35:38;18.60;99.90
20288;DHT22;10303;51.960;8.372;2022-10-16T22:38:05;18.60;99.90
20288;DHT22;10303;51.960;8.372;2022-10-16T22:40:33;18.60;99.90
20288;DHT22;10303;51.960;8.372;2022-10-16T22:43:03;18.50;99.90
20288;DHT22;10303;51.960;8.372;2022-10-16T22:45:34;18.50;99.90
20288;DHT22;10303;51.960;8.372;2022-10-16T22:48:02;18.50;99.90
20288;DHT22;10303;51.960;8.372;2022-10-16T22:50:28;18.40;99.90
20288;DHT22;10303;51.960;8.372;2022-10-16T22:52:55;18.50;99.90
20288;DHT22;10303;51.960;8.372;2022-10-16T22:55:21;18.50;99.90
20288;DHT22;10303;51.960;8.372;2022-10-16T22:57:48;18.40;99.90
20288;DHT22;10303;51.960;8.372;2022-10-16T23:00:17;18.40;99.90
20288;DHT22;10303;51.960;8.372;2022-10-16T23:02:44;18.40;99.90
20288;DHT22;10303;51.960;8.372;2022-10-16T23:05:10;18.40;99.90
20288;DHT22;10303;51.960;8.372;2022-10-16T23:07:38;18.30;99.90
20288;DHT22;10303;51.960;8.372;2022-10-16T23:10:06;18.30;99.90
20288;DHT22;10303;51.960;8.372;2022-10-16T23:12:34;18.30;99.90
20288;DHT22;10303;51.960;8.372;2022-10-16T23:15:01;18.30;99.90
20288;DHT22;10303;51.960;8.372;2022-10-16T23:17:30;18.30;99.90
20288;DHT22;10303;51.960;8.372;2022-10-16T23:19:56;18.30;99.90
20288;DHT22;10303;51.960;8.372;2022-10-16T23:22:22;18.20;99.90
20288;DHT22;10303;51.960;8.372;2022-10-16T23:24:47;18.20;99.90
20288;DHT22;10303;51.960;8.372;2022-10-16T23:27:13;18.20;99.90
20288;DHT22;10303;51.960;8.372;2022-10-16T23:29:39;18.20;99.90
20288;DHT22;10303;51.960;8.372;2022-10-16T23:32:05;18.20;99.90
20288;DHT22;10303;51.960;8.372;2022-10-16T23:34:31;18.20;99.90
20288;DHT22;10303;51.960;8.372;2022-10-16T23:36:57;18.10;99.90
20288;DHT22;10303;51.960;8.372;2022-10-16T23:39:23;18.10;99.90
20288;DHT22;10303;51.960;8.372;2022-10-16T23:41:49;18.10;99.90
20288;DHT22;10303;51.960;8.372;2022-10-16T23:44:15;18.10;99.90
20288;DHT22;10303;51.960;8.372;2022-10-16T23:46:41;18.10;99.90
20288;DHT22;10303;51.960;8.372;2022-10-16T23:49:07;18.10;99.90
20288;DHT22;10303;51.960;8.372;2022-10-16T23:51:34;18.10;99.90
20288;DHT22;10303;51.960;8.372;2022-10-16T23:54:00;18.00;99.90
20288;DHT22;10303;51.960;8.372;2022-10-16T23:56:26;18.00;99.90
20288;DHT22;10303;51.960;8.372;2022-10-16T23:58:52;18.00;99.90
